createdAt,value
2023-02-16T00:00:17.396Z,48.12
2023-02-16T00:01:17.395Z,48.12
2023-02-16T00:02:17.394Z,48.12
2023-02-16T00:03:17.394Z,48.12
2023-02-16T00:04:17.354Z,48.12
2023-02-16T00:05:17.931Z,48.12
2023-02-16T00:06:17.350Z,48.12
2023-02-16T00:07:17.335Z,48.12
2023-02-16T00:08:17.335Z,48.12
2023-02-16T00:09:17.304Z,48.12
2023-02-16T00:10:17.293Z,48.12
2023-02-16T00:11:17.293Z,48.12
2023-02-16T00:12:17.271Z,48.12
2023-02-16T00:13:17.258Z,48.12
2023-02-16T00:14:17.262Z,48.12
2023-02-16T00:15:17.244Z,48.12
2023-02-16T00:16:17.271Z,48.12
2023-02-16T00:17:17.215Z,48.12
2023-02-16T00:18:17.209Z,48.12
2023-02-16T00:19:17.206Z,48.12
2023-02-16T00:20:17.189Z,48.12
2023-02-16T00:21:17.172Z,48.12
2023-02-16T00:22:17.187Z,48.12
2023-02-16T00:23:17.155Z,48.12
2023-02-16T00:24:17.154Z,48.12
2023-02-16T00:25:17.133Z,48.12
2023-02-16T00:26:17.128Z,48.12
2023-02-16T00:27:17.656Z,48.12
2023-02-16T00:28:17.113Z,48.12
2023-02-16T00:29:17.099Z,48.02
2023-02-16T00:30:17.173Z,48.12
2023-02-16T00:31:17.235Z,48.12
2023-02-16T00:32:17.217Z,48.12
2023-02-16T00:33:17.048Z,48.12
2023-02-16T00:34:17.059Z,48.12
2023-02-16T00:35:17.035Z,48.12
2023-02-16T00:36:17.032Z,48.12
2023-02-16T00:37:17.013Z,48.12
2023-02-16T00:38:17.002Z,48.12
2023-02-16T00:39:16.996Z,48.12
2023-02-16T00:40:16.989Z,48.12
2023-02-16T00:41:16.964Z,48.12
2023-02-16T00:42:16.964Z,48.12
2023-02-16T00:43:16.946Z,48.12
2023-02-16T00:44:16.962Z,48.12
2023-02-16T00:45:16.943Z,48.12
2023-02-16T00:46:16.934Z,48.12
2023-02-16T00:47:16.908Z,48.12
2023-02-16T00:48:16.898Z,48.12
2023-02-16T00:49:16.888Z,48.12
2023-02-16T00:50:16.899Z,48.12
2023-02-16T00:51:25.513Z,48.12
2023-02-16T00:52:16.860Z,48.02
2023-02-16T00:53:16.851Z,48.12
2023-02-16T00:54:16.846Z,48.02
2023-02-16T00:55:16.842Z,48.12
2023-02-16T00:56:16.818Z,48.02
2023-02-16T00:57:16.799Z,48.12
2023-02-16T00:58:16.809Z,48.12
2023-02-16T00:59:16.815Z,48.12
2023-02-16T01:00:16.792Z,48.02
2023-02-16T01:01:16.815Z,48.12
2023-02-16T01:02:16.750Z,48.02
2023-02-16T01:03:16.757Z,48.02
2023-02-16T01:04:16.749Z,48.12
2023-02-16T01:05:16.761Z,48.02
2023-02-16T01:06:16.704Z,48.02
2023-02-16T01:07:16.708Z,48.02
2023-02-16T01:08:16.723Z,48.02
2023-02-16T01:09:16.698Z,48.02
2023-02-16T01:10:16.706Z,48.12
2023-02-16T01:11:16.656Z,48.02
2023-02-16T01:12:16.656Z,48.02
2023-02-16T01:13:16.654Z,48.02
2023-02-16T01:14:16.623Z,48.02
2023-02-16T01:15:16.644Z,48.05
2023-02-16T01:16:16.681Z,48.02
2023-02-16T01:17:16.594Z,48.02
2023-02-16T01:18:16.586Z,48.14
2023-02-16T01:19:16.611Z,48.05
2023-02-16T01:20:16.574Z,48.05
2023-02-16T01:21:16.549Z,48.02
2023-02-16T01:22:16.544Z,48.05
2023-02-16T01:23:16.520Z,48.05
2023-02-16T01:24:16.551Z,48.02
2023-02-16T01:25:16.503Z,48.05
2023-02-16T01:26:16.511Z,48.02
2023-02-16T01:27:16.539Z,48.14
2023-02-16T01:28:16.468Z,48.05
2023-02-16T01:29:16.476Z,48.05
2023-02-16T01:30:16.494Z,48.05
2023-02-16T01:31:16.547Z,48.05
2023-02-16T01:32:16.598Z,48.05
2023-02-16T01:33:16.425Z,48.05
2023-02-16T01:34:16.411Z,48.05
2023-02-16T01:35:16.392Z,48.05
2023-02-16T01:36:16.392Z,48.05
2023-02-16T01:37:16.396Z,48.05
2023-02-16T01:38:18.474Z,48.05
2023-02-16T01:39:16.350Z,48.05
2023-02-16T01:40:16.346Z,48.05
2023-02-16T01:41:16.370Z,48.05
2023-02-16T01:42:16.334Z,48.05
2023-02-16T01:43:16.307Z,48.05
2023-02-16T01:44:16.327Z,48.05
2023-02-16T01:45:16.286Z,48.05
2023-02-16T01:46:16.360Z,48.05
2023-02-16T01:47:16.275Z,48.05
2023-02-16T01:48:16.262Z,48.05
2023-02-16T01:49:16.244Z,48.05
2023-02-16T01:50:16.242Z,48.05
2023-02-16T01:51:16.240Z,48.05
2023-02-16T01:52:16.220Z,48.05
2023-02-16T01:53:16.200Z,48.05
2023-02-16T01:54:16.215Z,48.05
2023-02-16T01:55:16.179Z,48.05
2023-02-16T01:56:16.176Z,48.05
2023-02-16T01:57:16.180Z,48.05
2023-02-16T01:58:16.158Z,48.05
2023-02-16T01:59:16.142Z,48.05
2023-02-16T02:00:16.141Z,48.05
2023-02-16T02:01:16.146Z,48.05
2023-02-16T02:02:16.112Z,48.05
2023-02-16T02:03:16.105Z,48.05
2023-02-16T02:04:16.088Z,48.05
2023-02-16T02:05:16.076Z,48.05
2023-02-16T02:06:16.063Z,48.05
2023-02-16T02:07:16.104Z,48.05
2023-02-16T02:08:16.047Z,48.05
2023-02-16T02:09:16.038Z,48.05
2023-02-16T02:10:16.027Z,48.05
2023-02-16T02:11:16.007Z,48.05
2023-02-16T02:12:16.000Z,48.05
2023-02-16T02:13:15.991Z,48.05
2023-02-16T02:14:15.991Z,48.05
2023-02-16T02:15:15.977Z,48.05
2023-02-16T02:16:15.998Z,48.05
2023-02-16T02:17:15.985Z,48.05
2023-02-16T02:18:15.949Z,48.05
2023-02-16T02:19:15.922Z,48.05
2023-02-16T02:20:15.917Z,48.05
2023-02-16T02:21:15.906Z,48.05
2023-02-16T02:22:15.916Z,48.05
2023-02-16T02:23:15.880Z,48.05
2023-02-16T02:24:16.599Z,48.05
2023-02-16T02:25:15.868Z,48.05
2023-02-16T02:26:15.865Z,48.05
2023-02-16T02:27:15.952Z,48.05
2023-02-16T02:28:15.836Z,48.05
2023-02-16T02:29:15.820Z,48.05
2023-02-16T02:30:15.847Z,48.05
2023-02-16T02:31:15.910Z,48.05
2023-02-16T02:32:15.933Z,48.05
2023-02-16T02:33:15.798Z,48.05
2023-02-16T02:34:15.770Z,48.05
2023-02-16T02:35:15.762Z,48.05
2023-02-16T02:36:15.742Z,48.05
2023-02-16T02:37:15.734Z,48.05
2023-02-16T02:38:15.733Z,48.05
2023-02-16T02:39:15.712Z,48.05
2023-02-16T02:40:15.712Z,47.94
2023-02-16T02:41:15.694Z,47.94
2023-02-16T02:42:15.683Z,48.05
2023-02-16T02:43:15.686Z,47.94
2023-02-16T02:44:15.681Z,47.94
2023-02-16T02:45:15.649Z,47.94
2023-02-16T02:46:15.650Z,47.94
2023-02-16T02:47:15.633Z,47.94
2023-02-16T02:48:15.623Z,48.05
2023-02-16T02:49:15.617Z,48.05
2023-02-16T02:50:15.597Z,48.05
2023-02-16T02:51:15.589Z,48.05
2023-02-16T02:52:15.574Z,48.05
2023-02-16T02:53:15.586Z,48.05
2023-02-16T02:54:15.553Z,48.05
2023-02-16T02:55:15.562Z,48.05
2023-02-16T02:56:15.555Z,48.05
2023-02-16T02:57:15.528Z,48.05
2023-02-16T02:58:15.513Z,48.05
2023-02-16T02:59:15.520Z,48.05
2023-02-16T03:00:15.494Z,48.05
2023-02-16T03:01:15.528Z,48.05
2023-02-16T03:02:15.495Z,48.05
2023-02-16T03:03:15.469Z,47.94
2023-02-16T03:04:15.456Z,47.94
2023-02-16T03:05:15.467Z,47.94
2023-02-16T03:06:15.455Z,47.94
2023-02-16T03:07:15.445Z,47.94
2023-02-16T03:08:15.411Z,47.94
2023-02-16T03:09:15.399Z,47.94
2023-02-16T03:10:15.400Z,47.94
2023-02-16T03:11:15.381Z,47.94
2023-02-16T03:12:15.374Z,47.94
2023-02-16T03:13:15.373Z,47.94
2023-02-16T03:14:15.358Z,47.94
2023-02-16T03:15:15.352Z,47.94
2023-02-16T03:16:15.363Z,47.94
2023-02-16T03:17:15.318Z,47.94
2023-02-16T03:18:15.330Z,47.94
2023-02-16T03:19:15.303Z,47.94
2023-02-16T03:20:15.285Z,47.94
2023-02-16T03:21:15.285Z,47.94
2023-02-16T03:22:15.349Z,47.94
2023-02-16T03:23:15.269Z,47.94
2023-02-16T03:24:15.242Z,47.94
2023-02-16T03:25:15.241Z,47.94
2023-02-16T03:26:15.220Z,47.94
2023-02-16T03:27:15.307Z,47.85
2023-02-16T03:28:15.222Z,47.94
2023-02-16T03:29:15.190Z,47.94
2023-02-16T03:30:15.374Z,47.94
2023-02-16T03:31:15.392Z,47.94
2023-02-16T03:32:15.192Z,47.94
2023-02-16T03:33:15.149Z,47.94
2023-02-16T03:34:15.132Z,47.94
2023-02-16T03:35:15.146Z,47.94
2023-02-16T03:36:15.120Z,47.94
2023-02-16T03:37:15.107Z,47.94
2023-02-16T03:38:15.101Z,47.94
2023-02-16T03:39:15.094Z,47.94
2023-02-16T03:40:15.070Z,47.94
2023-02-16T03:41:15.072Z,47.94
2023-02-16T03:42:15.052Z,47.94
2023-02-16T03:43:15.066Z,47.94
2023-02-16T03:44:15.034Z,47.94
2023-02-16T03:45:15.023Z,47.85
2023-02-16T03:46:15.081Z,47.94
2023-02-16T03:47:15.000Z,47.94
2023-02-16T03:48:15.008Z,47.85
2023-02-16T03:49:14.988Z,47.94
2023-02-16T03:50:14.968Z,47.85
2023-02-16T03:51:14.975Z,47.94
2023-02-16T03:52:14.954Z,47.85
2023-02-16T03:53:17.464Z,47.94
2023-02-16T03:54:14.924Z,47.85
2023-02-16T03:55:14.949Z,47.94
2023-02-16T03:56:14.914Z,47.85
2023-02-16T03:57:14.913Z,47.85
2023-02-16T03:58:14.892Z,47.85
2023-02-16T03:59:14.878Z,47.94
2023-02-16T04:00:14.860Z,47.94
2023-02-16T04:01:14.869Z,47.94
2023-02-16T04:02:14.872Z,47.85
2023-02-16T04:03:14.865Z,47.94
2023-02-16T04:04:14.838Z,47.94
2023-02-16T04:05:14.821Z,47.85
2023-02-16T04:06:14.807Z,47.85
2023-02-16T04:07:14.842Z,47.85
2023-02-16T04:08:14.788Z,47.85
2023-02-16T04:09:14.786Z,47.85
2023-02-16T04:10:14.776Z,47.85
2023-02-16T04:11:14.755Z,47.85
2023-02-16T04:12:14.744Z,47.85
2023-02-16T04:13:14.742Z,47.85
2023-02-16T04:14:14.725Z,47.85
2023-02-16T04:15:14.711Z,47.85
2023-02-16T04:16:14.746Z,47.85
2023-02-16T04:17:14.739Z,47.94
2023-02-16T04:18:14.681Z,47.94
2023-02-16T04:19:14.676Z,47.85
2023-02-16T04:20:14.670Z,47.85
2023-02-16T04:21:14.669Z,47.85
2023-02-16T04:22:14.634Z,47.85
2023-02-16T04:23:14.638Z,47.85
2023-02-16T04:24:14.619Z,47.85
2023-02-16T04:25:14.606Z,47.85
2023-02-16T04:26:14.596Z,47.85
2023-02-16T04:27:14.668Z,47.85
2023-02-16T04:28:14.586Z,47.85
2023-02-16T04:29:14.567Z,47.94
2023-02-16T04:30:14.604Z,47.94
2023-02-16T04:31:14.624Z,47.85
2023-02-16T04:32:14.712Z,47.85
2023-02-16T04:33:14.531Z,47.85
2023-02-16T04:34:14.513Z,47.85
2023-02-16T04:35:14.510Z,47.85
2023-02-16T04:36:14.486Z,47.85
2023-02-16T04:37:14.509Z,47.85
2023-02-16T04:38:14.470Z,47.85
2023-02-16T04:39:14.477Z,47.85
2023-02-16T04:40:14.448Z,47.85
2023-02-16T04:41:14.450Z,47.85
2023-02-16T04:42:14.420Z,47.85
2023-02-16T04:43:14.414Z,47.85
2023-02-16T04:44:14.396Z,47.85
2023-02-16T04:45:14.420Z,47.85
2023-02-16T04:46:14.414Z,47.85
2023-02-16T04:47:14.371Z,47.85
2023-02-16T04:48:14.362Z,47.85
2023-02-16T04:49:14.347Z,47.85
2023-02-16T04:50:14.344Z,47.85
2023-02-16T04:51:14.329Z,47.85
2023-02-16T04:52:14.322Z,47.85
2023-02-16T04:53:14.314Z,47.85
2023-02-16T04:54:14.294Z,47.85
2023-02-16T04:55:14.288Z,47.85
2023-02-16T04:56:14.285Z,47.85
2023-02-16T04:57:14.266Z,47.85
2023-02-16T04:58:14.260Z,47.74
2023-02-16T04:59:14.248Z,47.74
2023-02-16T05:00:14.250Z,47.74
2023-02-16T05:01:14.237Z,47.74
2023-02-16T05:02:14.212Z,47.72
2023-02-16T05:03:14.200Z,47.62
2023-02-16T05:04:14.210Z,47.62
2023-02-16T05:05:14.180Z,47.62
2023-02-16T05:06:14.172Z,47.62
2023-02-16T05:07:14.179Z,47.62
2023-02-16T05:08:14.143Z,47.62
2023-02-16T05:09:14.158Z,47.52
2023-02-16T05:10:14.123Z,47.52
2023-02-16T05:11:14.120Z,47.52
2023-02-16T05:12:14.114Z,47.52
2023-02-16T05:13:14.096Z,47.52
2023-02-16T05:14:14.083Z,47.52
2023-02-16T05:15:14.078Z,47.52
2023-02-16T05:16:14.164Z,47.52
2023-02-16T05:17:14.067Z,47.52
2023-02-16T05:18:14.051Z,47.52
2023-02-16T05:19:14.040Z,47.52
2023-02-16T05:20:14.029Z,47.52
2023-02-16T05:21:14.015Z,47.52
2023-02-16T05:22:13.997Z,47.52
2023-02-16T05:23:14.006Z,47.52
2023-02-16T05:24:13.979Z,47.52
2023-02-16T05:25:13.989Z,47.52
2023-02-16T05:26:13.957Z,47.52
2023-02-16T05:27:13.979Z,47.52
2023-02-16T05:28:13.981Z,47.52
2023-02-16T05:29:13.928Z,47.52
2023-02-16T05:30:13.978Z,47.52
2023-02-16T05:31:14.052Z,47.52
2023-02-16T05:32:14.018Z,47.52
2023-02-16T05:33:13.899Z,47.52
2023-02-16T05:34:13.915Z,47.52
2023-02-16T05:35:13.869Z,47.52
2023-02-16T05:36:13.898Z,47.52
2023-02-16T05:37:13.857Z,47.52
2023-02-16T05:38:13.854Z,47.52
2023-02-16T05:39:13.848Z,47.52
2023-02-16T05:40:13.849Z,47.52
2023-02-16T05:41:13.808Z,47.52
2023-02-16T05:42:13.803Z,47.52
2023-02-16T05:43:13.800Z,47.52
2023-02-16T05:44:13.779Z,47.52
2023-02-16T05:45:13.768Z,47.52
2023-02-16T05:46:13.762Z,47.52
2023-02-16T05:47:13.749Z,47.52
2023-02-16T05:48:13.756Z,47.52
2023-02-16T05:49:13.740Z,47.52
2023-02-16T05:50:13.710Z,47.52
2023-02-16T05:51:13.711Z,47.52
2023-02-16T05:52:13.689Z,47.52
2023-02-16T05:53:13.684Z,47.52
2023-02-16T05:54:13.680Z,47.52
2023-02-16T05:55:13.677Z,47.52
2023-02-16T05:56:13.672Z,47.52
2023-02-16T05:57:13.665Z,47.52
2023-02-16T05:58:13.640Z,47.62
2023-02-16T05:59:13.635Z,47.52
2023-02-16T06:00:13.616Z,47.52
2023-02-16T06:01:13.607Z,47.52
2023-02-16T06:02:13.661Z,47.52
2023-02-16T06:03:13.586Z,47.62
2023-02-16T06:04:13.567Z,47.52
2023-02-16T06:05:13.571Z,47.52
2023-02-16T06:06:13.550Z,47.52
2023-02-16T06:07:14.907Z,47.62
2023-02-16T06:08:13.531Z,47.52
2023-02-16T06:09:13.526Z,47.62
2023-02-16T06:10:13.505Z,47.62
2023-02-16T06:11:13.496Z,47.62
2023-02-16T06:12:13.498Z,47.62
2023-02-16T06:13:13.486Z,47.62
2023-02-16T06:14:13.499Z,47.62
2023-02-16T06:15:13.478Z,47.52
2023-02-16T06:16:13.515Z,47.62
2023-02-16T06:17:13.450Z,47.52
2023-02-16T06:18:13.434Z,47.62
2023-02-16T06:19:13.420Z,47.62
2023-02-16T06:20:13.398Z,47.62
2023-02-16T06:21:13.399Z,47.52
2023-02-16T06:22:13.375Z,47.52
2023-02-16T06:23:13.380Z,47.62
2023-02-16T06:24:13.366Z,47.52
2023-02-16T06:25:13.357Z,47.52
2023-02-16T06:26:19.797Z,47.52
2023-02-16T06:27:13.332Z,47.52
2023-02-16T06:28:13.312Z,47.52
2023-02-16T06:29:13.316Z,47.52
2023-02-16T06:30:13.337Z,47.52
2023-02-16T06:31:13.390Z,47.52
2023-02-16T06:32:13.432Z,47.52
2023-02-16T06:33:13.303Z,47.52
2023-02-16T06:34:13.251Z,47.52
2023-02-16T06:35:13.255Z,47.52
2023-02-16T06:36:13.261Z,47.52
2023-02-16T06:37:13.229Z,47.52
2023-02-16T06:38:13.214Z,47.52
2023-02-16T06:39:13.203Z,47.62
2023-02-16T06:40:13.191Z,47.52
2023-02-16T06:41:13.181Z,47.52
2023-02-16T06:42:13.169Z,47.52
2023-02-16T06:43:13.154Z,47.52
2023-02-16T06:44:13.158Z,47.52
2023-02-16T06:45:13.134Z,47.52
2023-02-16T06:46:13.165Z,47.52
2023-02-16T06:47:13.123Z,47.52
2023-02-16T06:48:13.113Z,47.52
2023-02-16T06:49:13.119Z,47.52
2023-02-16T06:50:13.091Z,47.52
2023-02-16T06:51:13.070Z,47.52
2023-02-16T06:52:13.063Z,47.52
2023-02-16T06:53:13.058Z,47.52
2023-02-16T06:54:13.042Z,47.52
2023-02-16T06:55:13.043Z,47.52
2023-02-16T06:56:13.024Z,47.52
2023-02-16T06:57:13.013Z,47.52
2023-02-16T06:58:13.003Z,47.52
2023-02-16T06:59:13.003Z,47.52
2023-02-16T07:00:12.992Z,47.52
2023-02-16T07:01:13.015Z,47.52
2023-02-16T07:02:12.958Z,47.52
2023-02-16T07:03:12.984Z,47.52
2023-02-16T07:04:12.957Z,47.52
2023-02-16T07:05:12.921Z,47.52
2023-02-16T07:06:12.926Z,47.52
2023-02-16T07:07:12.925Z,47.52
2023-02-16T07:08:12.909Z,47.52
2023-02-16T07:09:13.146Z,47.52
2023-02-16T07:10:12.882Z,47.52
2023-02-16T07:11:12.954Z,47.52
2023-02-16T07:12:12.847Z,47.52
2023-02-16T07:13:12.833Z,47.52
2023-02-16T07:14:12.830Z,47.52
2023-02-16T07:15:12.811Z,47.52
2023-02-16T07:16:12.889Z,47.52
2023-02-16T07:17:12.801Z,47.52
2023-02-16T07:18:12.783Z,47.52
2023-02-16T07:19:12.993Z,47.52
2023-02-16T07:20:12.780Z,47.52
2023-02-16T07:21:12.752Z,47.52
2023-02-16T07:22:12.745Z,47.52
2023-02-16T07:23:12.745Z,47.52
2023-02-16T07:24:12.730Z,47.52
2023-02-16T07:25:12.726Z,47.52
2023-02-16T07:26:12.705Z,47.52
2023-02-16T07:27:12.692Z,47.52
2023-02-16T07:28:12.684Z,47.52
2023-02-16T07:29:12.663Z,47.52
2023-02-16T07:30:12.704Z,47.52
2023-02-16T07:31:12.752Z,47.52
2023-02-16T07:32:12.700Z,47.52
2023-02-16T07:33:12.621Z,47.52
2023-02-16T07:34:12.617Z,47.52
2023-02-16T07:35:12.608Z,47.52
2023-02-16T07:36:12.597Z,47.52
2023-02-16T07:37:12.589Z,47.52
2023-02-16T07:38:12.587Z,47.52
2023-02-16T07:39:12.554Z,47.52
2023-02-16T07:40:12.561Z,47.52
2023-02-16T07:41:13.039Z,47.52
2023-02-16T07:42:12.537Z,47.52
2023-02-16T07:43:12.509Z,47.52
2023-02-16T07:44:12.514Z,47.52
2023-02-16T07:45:12.493Z,47.52
2023-02-16T07:46:12.554Z,47.52
2023-02-16T07:47:12.473Z,47.52
2023-02-16T07:48:12.466Z,47.52
2023-02-16T07:49:12.450Z,47.52
2023-02-16T07:50:12.478Z,47.52
2023-02-16T07:51:12.446Z,47.52
2023-02-16T07:52:12.423Z,47.52
2023-02-16T07:53:13.070Z,47.52
2023-02-16T07:54:12.403Z,47.52
2023-02-16T07:55:12.412Z,47.52
2023-02-16T07:56:12.393Z,47.62
2023-02-16T07:57:12.388Z,47.52
2023-02-16T07:58:12.366Z,47.62
2023-02-16T07:59:12.345Z,47.52
2023-02-16T08:00:12.365Z,47.52
2023-02-16T08:01:14.736Z,47.62
2023-02-16T08:02:12.437Z,47.52
2023-02-16T08:03:12.414Z,47.62
2023-02-16T08:04:12.324Z,47.62
2023-02-16T08:05:12.330Z,47.62
2023-02-16T08:06:12.278Z,47.62
2023-02-16T08:07:12.320Z,47.62
2023-02-16T08:08:12.203Z,47.62
2023-02-16T08:09:12.205Z,47.62
2023-02-16T08:10:12.178Z,47.62
2023-02-16T08:11:12.178Z,47.62
2023-02-16T08:12:12.161Z,47.62
2023-02-16T08:13:12.156Z,47.62
2023-02-16T08:14:12.136Z,47.72
2023-02-16T08:15:12.133Z,47.72
2023-02-16T08:16:12.160Z,47.72
2023-02-16T08:17:12.159Z,47.72
2023-02-16T08:18:12.157Z,47.72
2023-02-16T08:19:12.137Z,47.72
2023-02-16T08:20:12.144Z,47.72
2023-02-16T08:21:12.124Z,47.72
2023-02-16T08:22:12.100Z,47.72
2023-02-16T08:23:12.046Z,47.72
2023-02-16T08:24:12.037Z,47.72
2023-02-16T08:25:12.032Z,47.72
2023-02-16T08:26:12.028Z,47.72
2023-02-16T08:27:11.998Z,47.72
2023-02-16T08:28:11.993Z,47.72
2023-02-16T08:29:12.028Z,47.72
2023-02-16T08:30:12.061Z,47.72
2023-02-16T08:31:12.114Z,47.82
2023-02-16T08:32:12.083Z,47.72
2023-02-16T08:33:11.987Z,47.82
2023-02-16T08:34:11.980Z,47.72
2023-02-16T08:35:11.930Z,47.72
2023-02-16T08:36:11.916Z,47.72
2023-02-16T08:37:11.900Z,47.62
2023-02-16T08:38:11.912Z,47.72
2023-02-16T08:39:11.885Z,47.72
2023-02-16T08:40:11.862Z,48.12
2023-02-16T08:41:11.878Z,49.83
2023-02-16T08:42:11.886Z,48.40
2023-02-16T08:43:11.820Z,49.40
2023-02-16T08:44:11.816Z,60.96
2023-02-16T08:45:11.876Z,49.48
2023-02-16T08:46:11.859Z,48.78
2023-02-16T08:47:11.860Z,47.75
2023-02-16T08:48:11.783Z,47.75
2023-02-16T08:49:11.760Z,47.75
2023-02-16T08:50:11.741Z,47.75
2023-02-16T08:51:11.739Z,47.53
2023-02-16T08:52:11.729Z,47.63
2023-02-16T08:53:11.706Z,47.93
2023-02-16T08:54:11.718Z,47.73
2023-02-16T08:55:11.710Z,48.03
2023-02-16T08:56:11.674Z,47.61
2023-02-16T08:57:11.669Z,47.50
2023-02-16T08:58:11.654Z,47.41
2023-02-16T08:59:11.645Z,47.61
2023-02-16T09:00:11.646Z,47.58
2023-02-16T09:01:11.649Z,47.38
2023-02-16T09:02:12.345Z,47.69
2023-02-16T09:03:11.593Z,47.88
2023-02-16T09:04:11.606Z,47.46
2023-02-16T09:05:11.579Z,47.96
2023-02-16T09:06:11.565Z,48.36
2023-02-16T09:07:11.647Z,47.76
2023-02-16T09:08:11.541Z,47.54
2023-02-16T09:09:11.526Z,47.64
2023-02-16T09:10:11.526Z,47.74
2023-02-16T09:11:11.511Z,47.74
2023-02-16T09:12:11.517Z,47.64
2023-02-16T09:13:11.483Z,48.02
2023-02-16T09:14:11.476Z,48.02
2023-02-16T09:15:11.467Z,47.72
2023-02-16T09:16:11.468Z,47.61
2023-02-16T09:17:11.443Z,47.72
2023-02-16T09:18:11.436Z,47.61
2023-02-16T09:19:11.415Z,47.60
2023-02-16T09:20:11.414Z,47.69
2023-02-16T09:21:11.418Z,47.49
2023-02-16T09:22:11.390Z,47.69
2023-02-16T09:23:11.391Z,47.19
2023-02-16T09:24:11.364Z,47.19
2023-02-16T09:25:11.363Z,47.49
2023-02-16T09:26:11.398Z,47.39
2023-02-16T09:27:11.340Z,47.60
2023-02-16T09:28:11.322Z,47.60
2023-02-16T09:29:11.326Z,47.60
2023-02-16T09:30:11.320Z,47.49
2023-02-16T09:31:11.481Z,47.49
2023-02-16T09:32:11.275Z,47.60
2023-02-16T09:33:11.260Z,47.30
2023-02-16T09:34:11.255Z,47.79
2023-02-16T09:35:11.263Z,47.69
2023-02-16T09:36:11.232Z,47.60
2023-02-16T09:37:11.235Z,47.49
2023-02-16T09:38:11.208Z,47.79
2023-02-16T09:39:11.200Z,47.99
2023-02-16T09:40:11.191Z,47.89
2023-02-16T09:41:11.881Z,48.19
2023-02-16T09:42:11.270Z,47.99
2023-02-16T09:43:11.166Z,48.10
2023-02-16T09:44:11.141Z,48.29
2023-02-16T09:45:11.132Z,47.99
2023-02-16T09:46:11.142Z,48.49
2023-02-16T09:47:11.182Z,48.29
2023-02-16T09:48:11.109Z,48.29
2023-02-16T09:49:11.094Z,48.49
2023-02-16T09:50:11.094Z,48.60
2023-02-16T09:51:11.072Z,48.69
2023-02-16T09:52:11.135Z,48.69
2023-02-16T09:53:11.050Z,47.89
2023-02-16T09:54:11.055Z,48.10
2023-02-16T09:55:11.040Z,48.49
2023-02-16T09:56:11.015Z,48.29
2023-02-16T09:57:11.019Z,48.49
2023-02-16T09:58:10.998Z,48.60
2023-02-16T09:59:11.664Z,48.60
2023-02-16T10:00:11.022Z,48.79
2023-02-16T10:01:11.062Z,48.79
2023-02-16T10:02:11.012Z,48.49
2023-02-16T10:03:10.942Z,48.69
2023-02-16T10:04:10.938Z,48.79
2023-02-16T10:05:10.915Z,48.69
2023-02-16T10:06:10.926Z,48.60
2023-02-16T10:07:10.979Z,48.29
2023-02-16T10:08:10.887Z,48.60
2023-02-16T10:09:10.872Z,48.39
2023-02-16T10:10:10.882Z,48.69
2023-02-16T10:11:10.860Z,48.49
2023-02-16T10:12:10.863Z,48.60
2023-02-16T10:13:10.833Z,48.39
2023-02-16T10:14:10.830Z,48.60
2023-02-16T10:15:10.809Z,48.69
2023-02-16T10:16:10.930Z,48.87
2023-02-16T10:17:10.805Z,48.79
2023-02-16T10:18:10.787Z,48.39
2023-02-16T10:19:10.777Z,48.29
2023-02-16T10:20:10.770Z,48.79
2023-02-16T10:21:10.754Z,48.69
2023-02-16T10:22:10.745Z,48.87
2023-02-16T10:23:10.724Z,48.57
2023-02-16T10:24:10.717Z,48.47
2023-02-16T10:25:10.720Z,48.67
2023-02-16T10:26:10.729Z,48.67
2023-02-16T10:27:10.688Z,48.77
2023-02-16T10:28:10.680Z,48.97
2023-02-16T10:29:10.661Z,48.97
2023-02-16T10:30:10.716Z,48.67
2023-02-16T10:31:10.756Z,48.90
2023-02-16T10:32:10.718Z,48.87
2023-02-16T10:33:10.634Z,49.09
2023-02-16T10:34:10.615Z,49.09
2023-02-16T10:35:10.604Z,48.99
2023-02-16T10:36:10.594Z,49.09
2023-02-16T10:37:10.602Z,48.90
2023-02-16T10:38:10.573Z,48.90
2023-02-16T10:39:10.559Z,48.90
2023-02-16T10:40:10.562Z,48.97
2023-02-16T10:41:10.546Z,49.09
2023-02-16T10:42:11.282Z,49.07
2023-02-16T10:43:10.515Z,49.27
2023-02-16T10:44:10.510Z,48.97
2023-02-16T10:45:10.496Z,48.87
2023-02-16T10:46:10.520Z,48.57
2023-02-16T10:47:11.401Z,48.87
2023-02-16T10:48:10.468Z,48.87
2023-02-16T10:49:10.470Z,48.77
2023-02-16T10:50:10.443Z,48.97
2023-02-16T10:51:10.454Z,48.97
2023-02-16T10:52:10.423Z,48.97
2023-02-16T10:53:10.423Z,48.77
2023-02-16T10:54:10.424Z,48.67
2023-02-16T10:55:10.396Z,48.77
2023-02-16T10:56:10.391Z,48.87
2023-02-16T10:57:10.438Z,48.97
2023-02-16T10:58:10.357Z,48.97
2023-02-16T10:59:10.363Z,48.97
2023-02-16T11:00:10.370Z,49.17
2023-02-16T11:01:10.476Z,48.87
2023-02-16T11:02:10.322Z,49.37
2023-02-16T11:03:10.325Z,49.17
2023-02-16T11:04:10.383Z,49.27
2023-02-16T11:05:10.292Z,49.47
2023-02-16T11:06:10.284Z,49.07
2023-02-16T11:07:10.290Z,49.47
2023-02-16T11:08:10.254Z,49.27
2023-02-16T11:09:10.264Z,49.27
2023-02-16T11:10:10.241Z,48.87
2023-02-16T11:11:10.236Z,48.87
2023-02-16T11:12:10.216Z,48.87
2023-02-16T11:13:10.206Z,49.07
2023-02-16T11:14:10.339Z,49.17
2023-02-16T11:15:10.193Z,49.17
2023-02-16T11:16:10.245Z,49.17
2023-02-16T11:17:10.166Z,49.27
2023-02-16T11:18:10.152Z,49.27
2023-02-16T11:19:10.150Z,49.37
2023-02-16T11:20:10.156Z,49.67
2023-02-16T11:21:10.141Z,49.17
2023-02-16T11:22:10.114Z,49.57
2023-02-16T11:23:10.098Z,49.37
2023-02-16T11:24:10.093Z,49.47
2023-02-16T11:25:10.079Z,49.57
2023-02-16T11:26:10.113Z,49.47
2023-02-16T11:27:10.066Z,49.37
2023-02-16T11:28:10.046Z,49.47
2023-02-16T11:29:10.045Z,49.37
2023-02-16T11:30:10.061Z,49.17
2023-02-16T11:31:10.084Z,49.37
2023-02-16T11:32:10.076Z,49.57
2023-02-16T11:33:10.010Z,49.67
2023-02-16T11:34:09.978Z,49.67
2023-02-16T11:35:10.005Z,49.77
2023-02-16T11:36:10.007Z,49.47
2023-02-16T11:37:09.966Z,49.07
2023-02-16T11:38:09.970Z,48.87
2023-02-16T11:39:11.222Z,49.17
2023-02-16T11:40:09.920Z,49.07
2023-02-16T11:41:09.912Z,48.77
2023-02-16T11:42:10.803Z,48.87
2023-02-16T11:43:09.889Z,48.77
2023-02-16T11:44:09.864Z,48.87
2023-02-16T11:45:09.856Z,48.47
2023-02-16T11:46:09.875Z,48.57
2023-02-16T11:47:09.883Z,48.67
2023-02-16T11:48:09.832Z,48.67
2023-02-16T11:49:09.811Z,48.67
2023-02-16T11:50:09.831Z,48.67
2023-02-16T11:51:09.792Z,48.67
2023-02-16T11:52:09.780Z,48.67
2023-02-16T11:53:09.797Z,48.37
2023-02-16T11:54:09.753Z,48.37
2023-02-16T11:55:09.749Z,48.27
2023-02-16T11:56:09.739Z,48.17
2023-02-16T11:57:09.753Z,48.07
2023-02-16T11:58:09.712Z,47.79
2023-02-16T11:59:09.706Z,47.19
2023-02-16T12:00:09.691Z,45.00
2023-02-16T12:01:09.693Z,42.69
2023-02-16T12:02:09.752Z,41.71
2023-02-16T12:03:09.681Z,42.52
2023-02-16T12:04:09.701Z,42.41
2023-02-16T12:05:09.707Z,42.54
2023-02-16T12:06:09.623Z,43.24
2023-02-16T12:07:09.624Z,43.54
2023-02-16T12:08:09.606Z,43.85
2023-02-16T12:09:09.598Z,44.35
2023-02-16T12:10:09.605Z,44.35
2023-02-16T12:11:09.599Z,44.56
2023-02-16T12:12:09.563Z,44.78
2023-02-16T12:13:09.556Z,44.98
2023-02-16T12:14:09.548Z,45.08
2023-02-16T12:15:09.538Z,45.18
2023-02-16T12:16:09.869Z,45.28
2023-02-16T12:17:09.517Z,45.38
2023-02-16T12:18:09.513Z,45.48
2023-02-16T12:19:09.492Z,45.58
2023-02-16T12:20:09.481Z,45.70
2023-02-16T12:21:09.486Z,45.80
2023-02-16T12:22:09.459Z,45.80
2023-02-16T12:23:09.468Z,45.90
2023-02-16T12:24:09.467Z,45.90
2023-02-16T12:25:09.428Z,46.00
2023-02-16T12:26:09.424Z,46.00
2023-02-16T12:27:09.404Z,46.11
2023-02-16T12:28:09.395Z,46.11
2023-02-16T12:29:09.384Z,46.20
2023-02-16T12:30:09.433Z,46.20
2023-02-16T12:31:09.436Z,46.20
2023-02-16T12:32:09.347Z,46.30
2023-02-16T12:33:09.347Z,46.30
2023-02-16T12:34:09.346Z,46.33
2023-02-16T12:35:09.341Z,46.53
2023-02-16T12:36:09.316Z,46.53
2023-02-16T12:37:09.301Z,46.53
2023-02-16T12:38:09.305Z,46.62
2023-02-16T12:39:09.312Z,46.62
2023-02-16T12:40:09.258Z,46.53
2023-02-16T12:41:09.273Z,46.62
2023-02-16T12:42:09.324Z,46.62
2023-02-16T12:43:09.248Z,46.62
2023-02-16T12:44:09.218Z,46.62
2023-02-16T12:45:09.225Z,46.73
2023-02-16T12:46:09.250Z,46.62
2023-02-16T12:47:09.250Z,46.73
2023-02-16T12:48:09.177Z,46.62
2023-02-16T12:49:09.165Z,46.73
2023-02-16T12:50:09.158Z,46.73
2023-02-16T12:51:09.144Z,46.73
2023-02-16T12:52:09.150Z,46.83